Time;durP1;ratioP1;P1;durP2;ratioP2;P2;SDS_P1;SDS_P2;PMS_P1;PMS_P2;Temp;Humidity;BMP_temperature;BMP_pressure;BME280_temperature;BME280_humidity;BME280_pressure;Samples;Min_cycle;Max_cycle;Signal;HPM_P1;HPM_P2
2021/03/24 05:24:24;;;;;;;16.48;9.57;;;0.90;89.80;;;;;;4959442;28;20244;-82
2021/03/24 05:30:14;;;;;;;15.98;9.32;;;0.80;88.60;;;;;;4937263;29;20199;-80
2021/03/24 05:33:07;;;;;;;14.27;9.30;;;0.80;88.40;;;;;;4940690;29;20245;-81
2021/03/24 05:35:50;;;;;;;15.20;9.60;;;0.70;88.40;;;;;;4941942;29;20239;-82
2021/03/24 05:38:23;;;;;;;15.43;9.40;;;0.70;88.10;;;;;;4940761;29;20197;-81
2021/03/24 05:41:07;;;;;;;14.60;10.02;;;0.60;89.30;;;;;;4942176;29;20192;-81
2021/03/24 05:44:09;;;;;;;16.05;9.60;;;0.70;90.00;;;;;;4941773;29;20219;-81
2021/03/24 05:50:39;;;;;;;12.55;8.93;;;1.00;88.10;;;;;;4940792;29;20183;-81
2021/03/24 05:53:58;;;;;;;16.08;9.65;;;1.10;84.40;;;;;;4940864;29;20219;-81
2021/03/24 05:57:01;;;;;;;14.52;9.15;;;1.10;82.60;;;;;;4884107;29;20289;-80
2021/03/24 06:05:36;;;;;;;18.02;10.13;;;1.20;82.40;;;;;;4938988;29;20219;-81
2021/03/24 06:12:15;;;;;;;16.42;9.48;;;1.00;83.20;;;;;;4940818;29;20190;-81
2021/03/24 06:15:56;;;;;;;14.80;9.40;;;1.10;83.50;;;;;;4940852;29;20245;-81
2021/03/24 06:19:19;;;;;;;18.48;9.43;;;1.20;83.80;;;;;;4883601;29;20205;-80
2021/03/24 06:22:21;;;;;;;16.35;8.98;;;1.30;84.00;;;;;;4940954;29;20207;-80
2021/03/24 06:25:05;;;;;;;12.50;8.70;;;1.40;83.10;;;;;;4940673;29;20214;-81
2021/03/24 06:31:52;;;;;;;13.57;8.82;;;1.50;81.30;;;;;;4938852;29;20203;-80
2021/03/24 06:35:08;;;;;;;12.70;9.00;;;1.70;80.40;;;;;;4941118;29;20230;-81
2021/03/24 06:41:07;;;;;;;12.55;8.30;;;1.90;78.80;;;;;;4927686;29;20235;-82
2021/03/24 07:03:29;;;;;;;13.60;9.10;;;2.90;71.20;;;;;;4786676;30;20200;-79
2021/03/24 07:06:21;;;;;;;12.23;9.10;;;3.10;70.50;;;;;;4734601;30;20218;-81
2021/03/24 07:09:10;;;;;;;13.00;8.57;;;3.30;68.80;;;;;;4786268;30;20231;-80
2021/03/24 07:11:58;;;;;;;14.25;8.57;;;3.50;68.40;;;;;;4787259;30;20442;-80
2021/03/24 14:03:45;;;;;;;10.73;7.30;;;15.70;24.10;;;;;;4972460;28;20470;-85
2021/03/24 14:06:19;;;;;;;11.88;6.90;;;15.90;23.50;;;;;;4956788;29;20469;-87
2021/03/24 14:08:57;;;;;;;11.50;7.10;;;15.80;23.70;;;;;;4946852;29;20194;-87
2021/03/24 14:12:05;;;;;;;10.00;7.83;;;15.70;23.90;;;;;;4943461;29;20398;-86
2021/03/24 14:14:48;;;;;;;12.20;7.40;;;15.70;23.80;;;;;;4905116;29;20476;-88
2021/03/24 14:17:21;;;;;;;10.18;7.40;;;15.50;23.80;;;;;;4917067;29;20491;-87
2021/03/24 14:19:55;;;;;;;9.40;7.57;;;15.60;23.90;;;;;;4902292;29;20264;-85
2021/03/24 14:22:28;;;;;;;10.83;6.50;;;15.80;23.80;;;;;;4902461;29;20468;-85
2021/03/24 14:25:07;;;;;;;7.80;6.20;;;15.70;23.10;;;;;;4903638;29;20549;-88
2021/03/24 14:27:40;;;;;;;10.30;6.70;;;15.70;22.50;;;;;;4902440;29;20965;-85
2021/03/24 14:30:12;;;;;;;8.13;6.60;;;15.70;22.30;;;;;;4902949;29;20539;-85
2021/03/24 14:32:55;;;;;;;10.02;6.68;;;15.50;22.30;;;;;;4913214;29;20442;-87
2021/03/24 14:35:37;;;;;;;8.15;5.82;;;15.40;22.60;;;;;;4904692;29;20243;-84
2021/03/24 14:38:21;;;;;;;7.67;5.93;;;15.50;22.50;;;;;;4906321;29;20208;-84
2021/03/24 14:40:58;;;;;;;11.32;7.13;;;15.60;23.10;;;;;;4905476;29;20434;-88
2021/03/24 14:43:40;;;;;;;8.52;6.40;;;15.80;23.30;;;;;;4904727;29;20303;-87
2021/03/24 14:46:16;;;;;;;7.55;6.55;;;15.80;23.30;;;;;;4904085;29;20196;-85
2021/03/24 14:49:02;;;;;;;9.13;6.30;;;15.80;24.10;;;;;;4903197;29;20234;-87
2021/03/24 14:51:38;;;;;;;9.97;6.13;;;15.90;23.50;;;;;;4967314;29;20541;-88
2021/03/24 14:54:27;;;;;;;8.80;6.20;;;15.80;23.60;;;;;;4972428;29;20454;-87
2021/03/24 14:57:06;;;;;;;8.40;5.40;;;15.80;23.30;;;;;;4953046;29;20234;-84
2021/03/24 14:59:36;;;;;;;7.60;5.83;;;15.70;22.80;;;;;;4947153;29;20214;-85
2021/03/24 15:02:34;;;;;;;7.18;5.75;;;15.70;22.90;;;;;;4945299;29;20958;-86
2021/03/24 15:05:25;;;;;;;8.30;5.80;;;15.70;23.00;;;;;;4952682;29;20508;-87
2021/03/24 15:08:17;;;;;;;7.55;5.85;;;15.60;23.20;;;;;;4946911;29;20510;-87
2021/03/24 15:11:02;;;;;;;6.67;5.30;;;15.60;23.40;;;;;;4943749;29;20218;-86
2021/03/24 15:13:45;;;;;;;6.60;5.50;;;15.60;23.30;;;;;;4956528;29;20553;-84
2021/03/24 15:16:22;;;;;;;8.48;5.50;;;15.70;23.40;;;;;;4951738;29;20490;-84
2021/03/24 15:19:21;;;;;;;7.07;5.53;;;15.70;22.00;;;;;;4944866;29;20222;-84
2021/03/24 15:21:55;;;;;;;5.53;4.93;;;15.70;21.90;;;;;;4966763;28;20224;-87
2021/03/24 15:24:34;;;;;;;5.45;4.95;;;15.60;22.10;;;;;;4978295;28;20439;-88
2021/03/24 15:27:08;;;;;;;5.78;4.65;;;15.70;22.30;;;;;;4978085;28;20198;-85
2021/03/24 15:29:39;;;;;;;7.80;4.20;;;15.70;21.60;;;;;;4976179;28;20220;-87
2021/03/24 15:32:21;;;;;;;6.10;4.47;;;15.70;20.70;;;;;;4971241;29;20455;-88
2021/03/24 15:35:08;;;;;;;5.93;3.87;;;15.70;20.70;;;;;;4969623;29;20510;-86
2021/03/24 15:38:00;;;;;;;5.07;4.37;;;15.60;19.60;;;;;;4965212;29;20444;-87
2021/03/24 15:40:38;;;;;;;7.13;4.37;;;15.60;19.40;;;;;;4963834;29;20544;-88
2021/03/24 15:43:08;;;;;;;5.93;4.05;;;15.60;20.10;;;;;;4962429;29;20924;-85
2021/03/24 15:45:38;;;;;;;5.73;4.57;;;15.70;19.60;;;;;;4962085;29;20307;-87
2021/03/24 15:48:21;;;;;;;6.60;4.10;;;15.80;19.30;;;;;;4962650;29;20484;-86
2021/03/24 15:50:50;;;;;;;6.67;4.40;;;15.70;20.20;;;;;;4965806;29;20466;-86
2021/03/24 15:53:25;;;;;;;10.10;4.67;;;15.70;20.00;;;;;;4964701;29;20459;-86
2021/03/24 15:55:56;;;;;;;5.57;3.63;;;15.70;19.80;;;;;;4962724;29;20451;-86
2021/03/24 15:58:46;;;;;;;4.83;3.93;;;15.70;19.20;;;;;;4965376;29;20450;-88
2021/03/24 16:01:16;;;;;;;6.90;3.83;;;15.60;19.90;;;;;;4962073;29;20467;-88
2021/03/24 16:04:02;;;;;;;5.73;3.63;;;15.60;20.00;;;;;;4961065;29;21037;-87
2021/03/24 16:06:38;;;;;;;6.67;4.97;;;15.50;19.80;;;;;;4967667;29;20454;-88
2021/03/24 16:09:16;;;;;;;5.85;4.40;;;15.40;20.00;;;;;;4972653;29;20453;-86
2021/03/24 16:12:30;;;;;;;6.30;4.10;;;15.40;20.10;;;;;;4971749;28;20294;-85
2021/03/24 16:15:05;;;;;;;7.23;4.50;;;15.30;19.80;;;;;;4941280;29;20466;-85
2021/03/24 16:17:41;;;;;;;4.93;4.43;;;15.30;19.20;;;;;;4958179;29;20466;-87
2021/03/24 16:20:13;;;;;;;7.70;3.80;;;15.20;19.60;;;;;;4961010;29;20233;-87
2021/03/24 16:23:03;;;;;;;11.07;4.37;;;15.20;19.30;;;;;;4959427;29;20210;-87
2021/03/24 16:25:39;;;;;;;6.13;3.63;;;15.10;19.20;;;;;;4954519;29;20486;-87
2021/03/24 16:28:21;;;;;;;7.27;3.30;;;15.10;19.30;;;;;;4954387;29;20217;-86
2021/03/24 16:30:54;;;;;;;7.13;4.30;;;15.10;19.10;;;;;;4954465;29;20457;-87
2021/03/24 16:34:01;;;;;;;4.87;4.00;;;15.00;19.20;;;;;;4956617;29;20462;-84
2021/03/24 16:36:47;;;;;;;5.55;3.60;;;15.10;18.90;;;;;;4896109;29;20488;-88
2021/03/24 16:40:00;;;;;;;6.05;3.63;;;15.00;19.10;;;;;;4959480;29;20239;-89
2021/03/24 16:42:35;;;;;;;6.05;4.45;;;14.90;18.70;;;;;;4961608;29;20225;-88
2021/03/24 16:45:47;;;;;;;6.25;4.50;;;14.90;19.10;;;;;;4961371;29;20245;-91
2021/03/24 16:48:47;;;;;;;4.82;3.28;;;14.80;18.90;;;;;;4934071;29;20211;-86
2021/03/24 16:55:04;;;;;;;5.32;3.30;;;14.60;19.60;;;;;;4955073;29;20222;-84
2021/03/24 16:57:43;;;;;;;5.30;3.20;;;14.60;19.50;;;;;;4954075;29;20601;-88
2021/03/24 17:05:26;;;;;;;4.03;3.33;;;14.40;19.80;;;;;;5711981;23;20225;-89
2021/03/24 17:08:04;;;;;;;5.13;3.80;;;14.30;20.10;;;;;;4980677;28;20196;-93
2021/03/24 17:11:16;;;;;;;4.32;3.53;;;14.30;20.60;;;;;;5201250;23;20222;-92
2021/03/24 17:14:05;;;;;;;4.22;3.33;;;14.20;20.50;;;;;;4960990;29;20221;-88
2021/03/24 17:16:40;;;;;;;5.63;3.72;;;14.10;20.40;;;;;;4959757;29;20511;-84
2021/03/24 17:19:26;;;;;;;5.30;3.55;;;14.00;20.30;;;;;;4950869;29;20210;-89
2021/03/24 17:21:56;;;;;;;5.55;4.05;;;13.90;20.70;;;;;;4951139;29;20206;-84
2021/03/24 17:24:35;;;;;;;6.35;3.30;;;13.80;20.80;;;;;;4960777;23;20234;-80
2021/03/24 17:27:10;;;;;;;5.13;4.00;;;13.70;20.90;;;;;;4941131;29;20202;-80
2021/03/24 17:29:39;;;;;;;3.35;3.05;;;13.50;21.20;;;;;;4956933;29;20201;-81
2021/03/24 17:32:22;;;;;;;7.00;3.50;;;13.40;21.50;;;;;;4957956;28;20214;-82
2021/03/24 17:34:49;;;;;;;3.80;2.97;;;13.30;21.50;;;;;;4958971;28;20237;-83
2021/03/24 17:37:35;;;;;;;9.68;4.72;;;13.20;21.70;;;;;;4959809;29;20218;-78
2021/03/24 17:40:22;;;;;;;8.95;4.07;;;13.10;22.00;;;;;;4960483;29;20210;-79
2021/03/24 17:43:15;;;;;;;11.27;4.20;;;13.00;22.10;;;;;;4954308;29;20217;-80
2021/03/24 17:45:46;;;;;;;5.80;3.75;;;12.90;22.50;;;;;;4938416;29;20383;-78
2021/03/24 17:48:25;;;;;;;4.25;3.60;;;12.70;22.80;;;;;;4913454;29;20217;-80
2021/03/24 17:51:03;;;;;;;6.32;4.05;;;12.50;22.80;;;;;;4919769;29;20224;-78
2021/03/24 17:53:38;;;;;;;5.68;4.00;;;12.40;23.20;;;;;;4935391;29;20210;-79
2021/03/24 17:56:12;;;;;;;6.10;4.15;;;12.40;23.40;;;;;;4936503;29;20230;-79
2021/03/24 17:58:56;;;;;;;5.60;4.15;;;12.40;23.50;;;;;;4935071;29;20203;-79
2021/03/24 18:01:30;;;;;;;6.07;4.00;;;12.30;23.30;;;;;;4932345;29;20214;-80
2021/03/24 18:04:12;;;;;;;7.30;3.65;;;12.20;23.30;;;;;;4934360;29;20235;-79
2021/03/24 18:06:41;;;;;;;6.95;4.35;;;12.10;23.20;;;;;;4936397;29;20219;-79
2021/03/24 18:09:14;;;;;;;9.40;5.03;;;12.10;23.20;;;;;;4939159;29;20198;-80
2021/03/24 18:11:46;;;;;;;6.43;4.70;;;12.10;23.20;;;;;;4937346;29;20215;-80
2021/03/24 18:14:27;;;;;;;7.43;4.78;;;12.00;23.30;;;;;;4935925;29;20235;-79
2021/03/24 18:16:58;;;;;;;7.93;5.60;;;11.90;23.70;;;;;;4939021;29;20230;-79
2021/03/24 18:19:44;;;;;;;6.05;4.55;;;11.70;23.90;;;;;;4936518;29;20183;-78
2021/03/24 18:22:16;;;;;;;6.30;4.35;;;11.60;24.50;;;;;;4937019;29;20278;-79
2021/03/24 18:24:44;;;;;;;8.65;5.03;;;11.50;24.80;;;;;;4936430;29;20250;-79
2021/03/24 18:27:20;;;;;;;7.78;5.18;;;11.50;25.00;;;;;;4936314;29;20210;-77
2021/03/24 18:29:49;;;;;;;11.88;8.65;;;11.40;25.30;;;;;;4939646;29;20206;-78
2021/03/24 18:32:15;;;;;;;9.07;6.60;;;11.30;25.70;;;;;;4935404;29;20258;-80
2021/03/24 18:34:43;;;;;;;9.65;6.30;;;11.20;26.20;;;;;;4939784;29;20242;-80
2021/03/24 18:37:15;;;;;;;12.88;7.53;;;11.00;26.40;;;;;;4934589;29;20231;-81
2021/03/24 18:39:43;;;;;;;27.23;15.95;;;10.90;27.30;;;;;;4932148;29;20231;-80
2021/03/24 18:42:15;;;;;;;21.15;12.45;;;10.80;27.80;;;;;;4934612;29;20218;-80
2021/03/24 18:44:47;;;;;;;23.15;12.48;;;10.70;27.80;;;;;;4936234;29;20223;-78
2021/03/24 18:47:22;;;;;;;19.23;11.40;;;10.60;28.30;;;;;;4931623;29;20258;-81
2021/03/24 18:49:50;;;;;;;14.98;9.38;;;10.50;28.40;;;;;;4929653;29;20221;-79
2021/03/24 18:52:30;;;;;;;15.30;6.82;;;10.50;28.90;;;;;;4930052;29;20212;-81
2021/03/24 18:55:24;;;;;;;8.95;6.43;;;10.40;29.20;;;;;;4931024;29;20730;-78
2021/03/24 18:58:18;;;;;;;11.63;6.90;;;10.40;29.50;;;;;;4928051;29;20207;-81
2021/03/24 19:00:53;;;;;;;9.93;6.75;;;10.30;29.90;;;;;;4931034;29;20214;-79
2021/03/24 19:03:22;;;;;;;9.10;6.65;;;10.20;30.20;;;;;;4929399;29;20257;-80
2021/03/24 19:05:49;;;;;;;10.88;6.32;;;10.10;31.20;;;;;;4929274;29;20766;-79
2021/03/24 19:08:19;;;;;;;8.77;5.55;;;10.10;31.00;;;;;;4929577;29;20198;-80
2021/03/24 19:11:01;;;;;;;7.47;5.40;;;10.00;31.30;;;;;;4930256;29;20259;-81
2021/03/24 19:13:40;;;;;;;6.93;4.90;;;10.00;31.80;;;;;;4929138;29;20219;-79
2021/03/24 19:16:28;;;;;;;7.72;4.70;;;10.00;32.00;;;;;;4928788;29;20578;-79
2021/03/24 19:19:11;;;;;;;5.35;4.55;;;9.90;33.30;;;;;;4925030;29;20239;-80
2021/03/24 19:21:41;;;;;;;8.07;5.50;;;9.80;33.60;;;;;;4934341;29;20222;-82
2021/03/24 19:24:39;;;;;;;5.88;4.43;;;9.70;34.20;;;;;;4939531;29;20275;-82
2021/03/24 19:27:13;;;;;;;7.35;5.30;;;9.60;34.80;;;;;;4939761;29;20211;-83
2021/03/24 19:29:43;;;;;;;9.35;4.97;;;9.50;35.10;;;;;;4940250;29;20206;-82
2021/03/24 19:32:37;;;;;;;6.97;5.40;;;9.50;35.10;;;;;;4939935;29;20198;-83
2021/03/24 19:35:29;;;;;;;6.03;4.45;;;9.30;35.60;;;;;;4940021;29;20243;-83
2021/03/24 19:38:29;;;;;;;5.75;4.28;;;9.20;36.10;;;;;;4936744;29;20695;-81
2021/03/24 19:41:20;;;;;;;5.85;4.75;;;9.20;36.50;;;;;;4927765;29;20251;-80
2021/03/24 19:43:53;;;;;;;8.98;5.03;;;9.10;36.90;;;;;;4927085;29;20325;-80
2021/03/24 19:46:34;;;;;;;8.07;5.50;;;9.00;37.10;;;;;;4928097;29;20207;-82
2021/03/24 19:49:08;;;;;;;8.38;6.25;;;9.00;37.60;;;;;;4928002;29;20254;-80
2021/03/24 19:51:36;;;;;;;9.15;5.75;;;8.90;37.90;;;;;;4926564;29;20211;-80
2021/03/24 19:54:03;;;;;;;9.77;5.35;;;8.80;38.30;;;;;;4928323;29;20227;-81
2021/03/24 19:56:38;;;;;;;14.75;5.95;;;8.80;39.00;;;;;;4930096;29;20234;-80
2021/03/24 19:59:14;;;;;;;7.53;5.60;;;8.80;39.40;;;;;;4927734;29;20210;-79
2021/03/24 20:01:46;;;;;;;9.13;6.90;;;8.70;39.40;;;;;;4931344;29;20222;-80
2021/03/24 20:04:22;;;;;;;8.90;7.30;;;8.70;39.40;;;;;;4926508;29;20254;-80
2021/03/24 20:06:53;;;;;;;9.68;5.88;;;8.70;39.40;;;;;;4926144;29;20214;-80
2021/03/24 20:09:31;;;;;;;6.85;5.93;;;8.60;39.30;;;;;;4930063;29;20751;-80
2021/03/24 20:12:00;;;;;;;6.57;5.80;;;8.50;39.20;;;;;;4931194;29;20556;-81
2021/03/24 20:14:31;;;;;;;9.23;6.57;;;8.50;40.30;;;;;;4935529;29;20258;-80
2021/03/24 20:17:00;;;;;;;11.45;6.90;;;8.30;40.80;;;;;;4933245;29;20231;-81
2021/03/24 20:19:29;;;;;;;12.80;7.45;;;8.30;41.30;;;;;;4932193;29;20214;-79
2021/03/24 20:21:57;;;;;;;11.57;6.60;;;8.30;41.80;;;;;;4932441;29;20215;-80
2021/03/24 20:24:27;;;;;;;13.43;7.55;;;8.20;42.00;;;;;;4932528;29;20239;-80
2021/03/24 20:26:54;;;;;;;9.30;6.53;;;8.20;42.30;;;;;;4932249;29;20207;-79
2021/03/24 20:29:23;;;;;;;11.05;7.00;;;8.10;42.80;;;;;;4931735;29;20211;-79
2021/03/24 20:32:14;;;;;;;13.02;7.47;;;8.00;43.00;;;;;;4931495;29;20458;-82
2021/03/24 20:34:50;;;;;;;9.93;7.18;;;7.90;43.60;;;;;;4934275;29;20223;-77
2021/03/24 20:37:22;;;;;;;9.95;7.95;;;7.90;43.70;;;;;;4938711;29;20250;-77
2021/03/24 20:39:59;;;;;;;12.05;7.97;;;7.90;44.10;;;;;;4936945;29;20199;-77
2021/03/24 20:42:30;;;;;;;11.52;7.93;;;7.80;44.40;;;;;;4926374;29;20223;-77
2021/03/24 20:45:07;;;;;;;14.60;8.60;;;7.80;44.80;;;;;;4928051;29;20238;-78
2021/03/24 20:47:35;;;;;;;11.60;8.77;;;7.80;45.10;;;;;;4936612;29;20516;-79
2021/03/24 20:50:18;;;;;;;16.77;10.10;;;7.70;45.40;;;;;;4940948;29;20211;-80
2021/03/24 20:52:44;;;;;;;18.30;11.00;;;7.70;45.70;;;;;;4941748;29;20191;-80
2021/03/24 20:55:11;;;;;;;18.85;11.70;;;7.70;45.80;;;;;;4942156;29;20413;-81
2021/03/24 20:57:38;;;;;;;18.67;12.73;;;7.70;46.30;;;;;;4941738;29;20219;-80
2021/03/24 21:00:06;;;;;;;23.17;11.65;;;7.60;46.70;;;;;;4935778;29;20216;-78
2021/03/24 21:02:34;;;;;;;16.75;11.15;;;7.60;47.10;;;;;;4919627;29;20215;-78
2021/03/24 21:05:01;;;;;;;18.90;11.30;;;7.60;47.70;;;;;;4920797;29;20303;-79
2021/03/24 21:07:28;;;;;;;10.10;8.80;;;7.50;48.10;;;;;;4922841;29;20298;-77
2021/03/24 21:09:55;;;;;;;14.00;9.25;;;7.50;48.10;;;;;;4926562;29;20647;-78
2021/03/24 21:12:23;;;;;;;13.07;9.00;;;7.50;48.10;;;;;;4920005;29;20690;-78
2021/03/24 21:14:50;;;;;;;11.10;8.00;;;7.40;48.90;;;;;;4919454;29;20255;-78
2021/03/24 21:17:21;;;;;;;13.48;8.55;;;7.40;49.50;;;;;;4920925;29;20767;-79
2021/03/24 21:19:47;;;;;;;9.23;7.43;;;7.30;50.20;;;;;;4923979;29;20756;-80
2021/03/24 21:22:16;;;;;;;12.82;8.20;;;7.30;50.90;;;;;;4920614;29;20294;-80
2021/03/24 21:27:18;;;;;;;10.18;8.20;;;7.30;51.70;;;;;;5793745;23;20237;-82
2021/03/24 21:29:47;;;;;;;11.05;7.68;;;7.30;52.30;;;;;;4999258;28;20181;-79
2021/03/24 21:32:14;;;;;;;9.95;7.68;;;7.30;52.50;;;;;;5190695;23;20241;-80
2021/03/24 21:34:40;;;;;;;12.55;7.28;;;7.20;52.60;;;;;;4952884;29;20235;-78
2021/03/24 21:37:06;;;;;;;18.00;11.70;;;7.20;52.60;;;;;;4953836;29;20284;-77
2021/03/24 21:39:35;;;;;;;14.20;11.50;;;7.10;53.00;;;;;;4948020;29;20244;-78
2021/03/24 21:42:02;;;;;;;15.93;12.57;;;7.10;53.60;;;;;;4947192;29;20265;-78
2021/03/24 22:05:08;;;;;;;15.38;10.45;;;6.60;56.70;;;;;;4884060;29;20704;-79
2021/03/24 22:07:36;;;;;;;14.57;9.85;;;6.60;56.70;;;;;;4889232;29;20208;-79
2021/03/24 22:10:05;;;;;;;13.98;10.35;;;6.50;56.60;;;;;;4887852;29;20666;-78
2021/03/24 22:12:31;;;;;;;13.65;9.10;;;6.50;57.60;;;;;;4889636;29;20217;-79
2021/03/24 22:18:02;;;;;;;18.00;9.02;;;6.50;58.00;;;;;;4928822;29;20267;-82
2021/03/24 22:20:33;;;;;;;11.68;8.15;;;6.40;58.00;;;;;;4933679;29;20214;-84
2021/03/24 22:23:00;;;;;;;13.88;9.75;;;6.40;58.30;;;;;;4931272;29;20202;-84
2021/03/24 22:25:28;;;;;;;12.40;9.38;;;6.30;58.50;;;;;;4929898;29;20703;-82
2021/03/24 22:28:17;;;;;;;11.02;8.07;;;6.20;58.80;;;;;;4931220;29;20231;-82
2021/03/24 22:30:56;;;;;;;10.45;8.10;;;6.20;59.10;;;;;;4939420;29;20190;-83
2021/03/24 22:33:32;;;;;;;11.40;8.63;;;6.10;59.30;;;;;;4930745;29;20263;-83
2021/03/24 22:36:02;;;;;;;11.45;8.40;;;6.00;59.80;;;;;;4931714;29;20273;-83
2021/03/24 22:38:36;;;;;;;13.13;9.20;;;6.00;60.70;;;;;;4929130;29;20455;-82
2021/03/24 22:41:06;;;;;;;10.63;8.32;;;5.90;60.90;;;;;;4926537;29;20215;-82
2021/03/24 22:43:35;;;;;;;14.50;9.32;;;6.00;61.00;;;;;;4925748;29;20757;-81
2021/03/24 22:46:03;;;;;;;10.23;7.88;;;5.90;61.30;;;;;;4927004;29;20290;-82
2021/03/24 22:48:45;;;;;;;10.00;8.50;;;5.90;61.20;;;;;;4927731;29;20319;-81
2021/03/24 22:51:19;;;;;;;11.40;8.20;;;5.90;61.20;;;;;;4934455;29;20270;-81
2021/03/24 22:53:54;;;;;;;14.85;8.80;;;5.80;61.30;;;;;;4934000;29;20218;-81
2021/03/24 22:56:27;;;;;;;13.63;8.80;;;5.80;61.80;;;;;;4936644;29;20231;-81
2021/03/24 22:59:01;;;;;;;12.95;8.82;;;5.80;62.40;;;;;;4936184;29;20198;-81
2021/03/24 23:01:29;;;;;;;14.40;9.45;;;5.80;62.70;;;;;;4930397;29;20773;-81
2021/03/24 23:04:05;;;;;;;10.55;7.75;;;5.70;62.90;;;;;;4936026;29;20233;-82
2021/03/24 23:06:33;;;;;;;11.60;8.45;;;5.70;62.90;;;;;;4937146;29;20435;-81
2021/03/24 23:09:06;;;;;;;11.57;8.63;;;5.70;62.90;;;;;;4936789;29;20210;-82
2021/03/24 23:11:38;;;;;;;10.57;7.80;;;5.70;63.00;;;;;;4938545;29;20293;-82
2021/03/24 23:14:11;;;;;;;12.25;7.95;;;5.70;63.30;;;;;;4938766;29;20199;-82
2021/03/24 23:16:45;;;;;;;15.02;8.43;;;5.60;63.60;;;;;;4938351;29;20277;-83
2021/03/24 23:19:15;;;;;;;10.80;8.23;;;5.60;64.20;;;;;;4937030;29;20202;-82
2021/03/24 23:21:44;;;;;;;10.07;8.15;;;5.60;64.20;;;;;;4927149;29;20204;-82
2021/03/24 23:24:14;;;;;;;12.95;8.70;;;5.60;64.30;;;;;;4927306;29;20275;-81
2021/03/24 23:26:44;;;;;;;11.77;9.27;;;5.50;64.70;;;;;;4930385;29;20227;-82
2021/03/24 23:29:11;;;;;;;13.80;9.50;;;5.50;64.70;;;;;;4935847;29;20210;-82
2021/03/24 23:31:41;;;;;;;10.93;8.60;;;5.50;64.70;;;;;;4941678;29;20589;-82
2021/03/24 23:34:08;;;;;;;10.70;8.57;;;5.40;64.60;;;;;;4941874;29;20215;-82
2021/03/24 23:36:35;;;;;;;10.30;7.70;;;5.30;65.40;;;;;;4941987;29;20237;-83
2021/03/24 23:39:04;;;;;;;16.58;9.30;;;5.30;65.70;;;;;;4933686;29;20214;-82
2021/03/24 23:41:30;;;;;;;14.77;9.05;;;5.20;66.40;;;;;;4928841;29;20266;-82
2021/03/24 23:43:57;;;;;;;12.00;8.75;;;5.20;66.50;;;;;;4928560;29;20298;-82
2021/03/24 23:46:25;;;;;;;12.55;9.02;;;5.20;66.60;;;;;;4930404;29;20251;-82
2021/03/24 23:48:52;;;;;;;12.15;8.52;;;5.20;66.90;;;;;;4935978;29;20215;-82
2021/03/24 23:51:18;;;;;;;11.60;8.18;;;5.20;66.80;;;;;;4934278;29;20211;-82
2021/03/24 23:53:45;;;;;;;14.90;8.38;;;5.20;66.80;;;;;;4932755;29;20226;-81
2021/03/24 23:56:22;;;;;;;13.10;8.05;;;5.10;66.60;;;;;;4928892;29;20274;-81
2021/03/24 23:58:50;;;;;;;8.70;7.43;;;5.00;67.20;;;;;;4927836;29;20203;-81
